createdAt,value
2022-12-25T00:00:50.745Z,2.78
2022-12-25T00:03:36.378Z,4.18
2022-12-25T00:06:21.962Z,2.72
2022-12-25T00:09:07.425Z,3.47
2022-12-25T00:11:52.979Z,2.97
2022-12-25T00:14:38.748Z,3.30
2022-12-25T00:17:24.464Z,3.33
2022-12-25T00:20:10.044Z,2.70
2022-12-25T00:22:55.666Z,3.10
2022-12-25T00:25:42.290Z,2.50
2022-12-25T00:28:28.087Z,4.07
2022-12-25T00:31:16.285Z,2.72
2022-12-25T00:34:01.813Z,2.50
2022-12-25T00:36:50.706Z,2.28
2022-12-25T00:39:36.262Z,3.17
2022-12-25T00:42:21.465Z,2.72
2022-12-25T00:45:07.314Z,3.10
2022-12-25T00:47:52.780Z,2.67
2022-12-25T00:50:39.144Z,2.80
2022-12-25T00:53:25.739Z,3.60
2022-12-25T00:56:11.401Z,3.05
2022-12-25T00:58:56.841Z,4.53
2022-12-25T01:01:42.439Z,6.43
2022-12-25T01:04:28.265Z,6.78
2022-12-25T01:07:13.883Z,6.63
2022-12-25T01:10:18.137Z,6.55
2022-12-25T01:13:03.485Z,5.00
2022-12-25T01:15:49.774Z,5.40
2022-12-25T01:18:35.383Z,4.07
2022-12-25T01:21:22.541Z,5.43
2022-12-25T01:24:08.372Z,2.83
2022-12-25T01:26:54.108Z,4.38
2022-12-25T01:29:39.504Z,3.13
2022-12-25T01:32:25.006Z,3.63
2022-12-25T01:35:10.385Z,3.53
2022-12-25T01:37:55.891Z,4.55
2022-12-25T01:40:41.375Z,3.08
2022-12-25T01:43:30.509Z,3.90
2022-12-25T01:46:16.784Z,2.65
2022-12-25T01:49:08.574Z,3.20
2022-12-25T01:51:59.512Z,1.60
2022-12-25T01:54:57.796Z,2.80
2022-12-25T01:57:43.951Z,2.13
2022-12-25T02:00:29.372Z,2.03
2022-12-25T02:03:15.018Z,2.28
2022-12-25T02:06:01.327Z,1.98
2022-12-25T02:08:46.739Z,1.83
2022-12-25T02:11:50.920Z,2.65
2022-12-25T02:14:37.813Z,2.33
2022-12-25T02:20:23.432Z,1.42
2022-12-25T02:23:11.797Z,2.90
2022-12-25T02:26:18.197Z,2.67
2022-12-25T02:29:22.730Z,4.35
2022-12-25T02:32:14.954Z,4.97
2022-12-25T02:35:22.883Z,3.00
2022-12-25T02:38:22.642Z,2.95
2022-12-25T02:41:16.288Z,2.67
2022-12-25T02:44:29.062Z,3.75
2022-12-25T02:47:33.472Z,3.03
2022-12-25T02:50:40.618Z,2.42
2022-12-25T02:53:45.514Z,2.22
2022-12-25T02:57:08.143Z,3.58
2022-12-25T03:00:16.009Z,4.20
2022-12-25T03:03:23.298Z,2.72
2022-12-25T03:06:28.554Z,7.25
2022-12-25T03:09:39.923Z,5.28
2022-12-25T03:12:34.522Z,4.38
2022-12-25T03:15:39.466Z,4.82
2022-12-25T03:18:28.474Z,3.08
2022-12-25T03:21:32.368Z,3.25
2022-12-25T03:24:36.663Z,2.03
2022-12-25T03:27:22.515Z,2.65
2022-12-25T03:30:44.083Z,2.60
2022-12-25T03:34:19.232Z,1.38
2022-12-25T03:37:44.806Z,2.55
2022-12-25T03:41:14.434Z,1.92
2022-12-25T03:44:21.338Z,2.88
2022-12-25T03:47:51.566Z,2.22
2022-12-25T03:51:03.771Z,2.20
2022-12-25T03:54:15.207Z,2.28
2022-12-25T03:57:19.712Z,3.15
2022-12-25T04:00:24.785Z,2.78
2022-12-25T04:03:28.831Z,3.45
2022-12-25T04:06:33.281Z,2.75
2022-12-25T04:09:37.738Z,4.97
2022-12-25T04:12:42.160Z,5.22
2022-12-25T04:15:46.579Z,2.20
2022-12-25T04:18:50.799Z,3.25
2022-12-25T04:21:55.047Z,4.13
2022-12-25T04:24:59.142Z,4.15
2022-12-25T04:28:03.254Z,2.85
2022-12-25T04:31:07.350Z,3.70
2022-12-25T04:34:11.865Z,2.60
2022-12-25T04:36:57.365Z,3.00
2022-12-25T04:39:42.956Z,3.38
2022-12-25T04:42:28.351Z,2.78
2022-12-25T04:45:14.041Z,1.92
2022-12-25T04:48:00.951Z,3.00
2022-12-25T04:50:46.896Z,3.78
2022-12-25T04:53:32.535Z,3.33
2022-12-25T04:56:18.359Z,2.75
2022-12-25T04:59:03.907Z,3.17
2022-12-25T05:01:49.326Z,3.10
2022-12-25T05:04:34.548Z,2.65
2022-12-25T05:07:20.188Z,3.53
2022-12-25T05:10:05.981Z,3.05
2022-12-25T05:12:51.591Z,2.40
2022-12-25T05:15:40.225Z,2.55
2022-12-25T05:18:25.923Z,2.78
2022-12-25T05:21:12.439Z,2.95
2022-12-25T05:23:57.808Z,3.75
2022-12-25T05:26:43.229Z,3.13
2022-12-25T05:29:28.772Z,3.10
2022-12-25T05:32:14.324Z,2.25
2022-12-25T05:35:00.566Z,2.22
2022-12-25T05:37:45.993Z,3.03
2022-12-25T05:40:31.832Z,1.63
2022-12-25T05:43:17.351Z,2.33
2022-12-25T05:46:07.501Z,2.10
2022-12-25T05:48:53.287Z,3.75
2022-12-25T05:51:38.778Z,5.00
2022-12-25T05:54:24.050Z,4.30
2022-12-25T05:57:09.447Z,4.18
2022-12-25T05:59:55.385Z,3.67
2022-12-25T06:02:40.917Z,3.75
2022-12-25T06:05:26.677Z,2.92
2022-12-25T06:08:12.003Z,3.00
2022-12-25T06:10:57.870Z,3.50
2022-12-25T06:13:43.579Z,2.92
2022-12-25T06:16:35.597Z,3.90
2022-12-25T06:19:23.115Z,3.63
2022-12-25T06:22:08.831Z,2.63
2022-12-25T06:24:55.178Z,2.80
2022-12-25T06:27:40.973Z,3.17
2022-12-25T06:30:27.133Z,1.67
2022-12-25T06:33:12.286Z,2.90
2022-12-25T06:35:57.834Z,1.95
2022-12-25T06:38:43.773Z,2.13
2022-12-25T06:41:30.411Z,2.30
2022-12-25T06:44:16.324Z,1.65
2022-12-25T06:47:01.804Z,1.35
2022-12-25T06:49:47.290Z,2.70
2022-12-25T06:52:33.600Z,1.77
2022-12-25T06:55:19.553Z,1.95
2022-12-25T06:58:04.843Z,2.03
2022-12-25T07:00:50.522Z,2.60
2022-12-25T07:03:36.597Z,2.08
2022-12-25T07:06:21.976Z,2.70
2022-12-25T07:09:07.660Z,4.05
2022-12-25T07:11:53.240Z,2.25
2022-12-25T07:14:38.850Z,3.40
2022-12-25T07:17:24.933Z,2.70
2022-12-25T07:20:10.920Z,3.42
2022-12-25T07:22:56.674Z,2.45
2022-12-25T07:25:42.236Z,2.22
2022-12-25T07:28:29.234Z,3.05
2022-12-25T07:31:16.971Z,2.80
2022-12-25T07:34:02.750Z,1.92
2022-12-25T07:36:48.690Z,1.67
2022-12-25T07:39:35.517Z,1.75
2022-12-25T07:42:25.119Z,2.83
2022-12-25T07:45:13.250Z,2.53
2022-12-25T07:48:04.954Z,1.80
2022-12-25T07:51:03.067Z,3.15
2022-12-25T07:53:48.602Z,2.72
2022-12-25T07:56:34.000Z,1.75
2022-12-25T07:59:19.812Z,3.72
2022-12-25T08:02:05.801Z,3.38
2022-12-25T08:04:51.524Z,3.75
2022-12-25T08:07:37.254Z,3.63
2022-12-25T08:10:23.044Z,2.30
2022-12-25T08:13:14.213Z,1.40
2022-12-25T08:16:01.651Z,3.03
2022-12-25T08:18:47.170Z,3.25
2022-12-25T08:21:32.823Z,3.83
2022-12-25T08:24:18.552Z,5.55
2022-12-25T08:27:04.258Z,3.85
2022-12-25T08:29:49.858Z,3.20
2022-12-25T08:32:35.550Z,3.10
2022-12-25T08:35:21.757Z,2.88
2022-12-25T08:38:07.235Z,4.72
2022-12-25T08:40:52.870Z,4.20
2022-12-25T08:43:38.663Z,4.65
2022-12-25T08:46:24.884Z,7.85
2022-12-25T08:49:10.686Z,5.75
2022-12-25T08:51:55.954Z,4.53
2022-12-25T08:54:41.326Z,5.03
2022-12-25T08:57:26.755Z,5.55
2022-12-25T09:00:12.753Z,6.70
2022-12-25T09:02:58.267Z,5.55
2022-12-25T09:05:43.739Z,6.57
2022-12-25T09:08:29.641Z,6.10
2022-12-25T09:11:15.631Z,5.55
2022-12-25T09:14:01.640Z,5.78
2022-12-25T09:16:50.306Z,5.05
2022-12-25T09:19:36.056Z,6.35
2022-12-25T09:22:21.577Z,5.15
2022-12-25T09:25:07.268Z,5.07
2022-12-25T09:27:53.187Z,5.28
2022-12-25T09:30:38.488Z,5.57
2022-12-25T09:33:24.398Z,4.95
2022-12-25T09:36:11.011Z,4.72
2022-12-25T09:38:56.827Z,5.97
2022-12-25T09:42:09.643Z,5.72
2022-12-25T09:45:02.927Z,5.00
2022-12-25T09:47:49.533Z,4.85
2022-12-25T09:50:37.957Z,6.57
2022-12-25T09:53:24.855Z,7.25
2022-12-25T09:56:27.399Z,8.27
2022-12-25T09:59:25.192Z,4.55
2022-12-25T10:05:25.666Z,5.22
2022-12-25T10:08:33.078Z,4.32
2022-12-25T10:11:30.508Z,5.35
2022-12-25T10:14:35.165Z,3.90
2022-12-25T10:17:47.102Z,3.97
2022-12-25T10:20:44.570Z,5.65
2022-12-25T10:23:40.843Z,5.40
2022-12-25T10:26:34.111Z,5.93
2022-12-25T10:29:19.991Z,10.23
2022-12-25T10:32:05.523Z,26.73
2022-12-25T10:34:51.339Z,42.45
2022-12-25T10:37:36.697Z,7.68
2022-12-25T10:40:36.920Z,4.53
2022-12-25T10:43:32.816Z,13.88
2022-12-25T10:46:19.189Z,4.70
2022-12-25T10:49:04.878Z,4.88
2022-12-25T10:51:51.415Z,9.05
2022-12-25T10:54:36.764Z,6.65
2022-12-25T10:57:24.860Z,5.72
2022-12-25T11:00:24.959Z,4.65
2022-12-25T11:03:23.601Z,4.53
2022-12-25T11:06:26.451Z,4.68
2022-12-25T11:09:16.629Z,5.90
2022-12-25T11:12:02.772Z,5.22
2022-12-25T11:14:56.546Z,9.20
2022-12-25T11:17:49.702Z,15.68
2022-12-25T11:20:37.085Z,14.25
2022-12-25T11:23:26.515Z,13.55
2022-12-25T11:26:12.598Z,10.57
2022-12-25T11:28:59.354Z,10.20
2022-12-25T11:31:47.516Z,8.35
2022-12-25T11:34:51.603Z,5.70
2022-12-25T11:37:50.486Z,5.95
2022-12-25T11:40:44.459Z,4.57
2022-12-25T11:43:39.461Z,4.63
2022-12-25T11:46:48.146Z,3.60
2022-12-25T11:49:52.183Z,4.82
2022-12-25T11:52:45.039Z,4.40
2022-12-25T11:55:45.785Z,3.90
2022-12-25T11:58:36.454Z,2.55
2022-12-25T12:01:37.067Z,4.30
2022-12-25T12:04:31.056Z,3.38
2022-12-25T12:07:22.264Z,3.00
2022-12-25T12:10:24.886Z,3.30
2022-12-25T12:13:20.928Z,3.67
2022-12-25T12:16:08.473Z,2.78
2022-12-25T12:18:54.345Z,2.75
2022-12-25T12:21:41.591Z,2.13
2022-12-25T12:24:43.395Z,3.05
2022-12-25T12:27:37.321Z,2.78
2022-12-25T12:30:35.981Z,2.80
2022-12-25T12:33:22.163Z,3.40
2022-12-25T12:36:14.254Z,2.60
2022-12-25T12:38:59.963Z,3.70
2022-12-25T12:41:48.640Z,3.03
2022-12-25T12:44:34.867Z,2.85
2022-12-25T12:47:41.472Z,2.83
2022-12-25T12:50:37.108Z,2.20
2022-12-25T12:53:22.211Z,3.22
2022-12-25T12:56:11.697Z,2.90
2022-12-25T12:58:57.216Z,2.72
2022-12-25T13:01:53.365Z,3.03
2022-12-25T13:04:52.272Z,2.97
2022-12-25T13:07:52.951Z,2.17
2022-12-25T13:10:45.651Z,2.78
2022-12-25T13:13:37.114Z,2.58
2022-12-25T13:16:39.082Z,2.63
2022-12-25T13:19:27.783Z,2.70
2022-12-25T13:22:24.597Z,2.20
2022-12-25T13:25:21.229Z,2.47
2022-12-25T13:28:14.082Z,2.45
2022-12-25T13:31:18.300Z,2.60
2022-12-25T13:34:05.089Z,2.10
2022-12-25T13:36:50.607Z,1.92
2022-12-25T13:39:39.524Z,2.55
2022-12-25T13:42:33.781Z,3.50
2022-12-25T13:45:24.233Z,2.35
2022-12-25T13:48:15.744Z,4.93
2022-12-25T13:51:02.299Z,4.03
2022-12-25T13:53:47.934Z,4.18
2022-12-25T13:56:36.186Z,5.28
2022-12-25T13:59:25.561Z,4.90
2022-12-25T14:02:22.226Z,4.38
2022-12-25T14:05:42.042Z,4.75
2022-12-25T14:08:32.330Z,4.65
2022-12-25T14:11:22.428Z,5.53
2022-12-25T14:14:35.617Z,4.22
2022-12-25T14:17:22.530Z,3.58
2022-12-25T14:20:21.558Z,2.85
2022-12-25T14:23:07.809Z,3.30
2022-12-25T14:25:53.743Z,2.45
2022-12-25T14:28:39.619Z,3.17
2022-12-25T14:31:29.036Z,3.53
2022-12-25T14:34:22.556Z,2.28
2022-12-25T14:37:17.269Z,3.22
2022-12-25T14:40:07.105Z,2.75
2022-12-25T14:42:57.541Z,2.63
2022-12-25T14:45:43.126Z,3.55
2022-12-25T14:48:31.795Z,2.92
2022-12-25T14:51:18.282Z,2.97
2022-12-25T14:54:13.998Z,3.78
2022-12-25T14:56:59.611Z,6.05
2022-12-25T14:59:45.487Z,3.20
2022-12-25T15:02:40.368Z,10.15
2022-12-25T15:05:37.978Z,3.42
2022-12-25T15:08:24.483Z,3.55
2022-12-25T15:11:10.124Z,4.20
2022-12-25T15:13:56.601Z,4.25
2022-12-25T15:16:46.639Z,3.70
2022-12-25T15:19:38.475Z,3.92
2022-12-25T15:22:24.315Z,3.33
2022-12-25T15:25:14.392Z,4.50
2022-12-25T15:28:00.198Z,3.58
2022-12-25T15:30:46.184Z,11.48
2022-12-25T15:33:33.214Z,12.52
2022-12-25T15:36:19.191Z,7.78
2022-12-25T15:39:04.647Z,11.43
2022-12-25T15:42:08.837Z,7.95
2022-12-25T15:44:54.443Z,9.63
2022-12-25T15:47:40.012Z,12.27
2022-12-25T15:50:25.400Z,10.38
2022-12-25T15:53:11.176Z,8.40
2022-12-25T15:55:56.948Z,9.27
2022-12-25T15:58:42.864Z,6.47
2022-12-25T16:01:28.254Z,6.82
2022-12-25T16:04:13.998Z,5.07
2022-12-25T16:07:00.047Z,4.53
2022-12-25T16:09:45.789Z,4.60
2022-12-25T16:12:31.476Z,3.42
2022-12-25T16:15:17.758Z,3.53
2022-12-25T16:18:03.976Z,3.92
2022-12-25T16:20:51.539Z,3.35
2022-12-25T16:26:22.782Z,5.00
2022-12-25T16:29:08.838Z,6.55
2022-12-25T16:31:54.708Z,6.40
2022-12-25T16:34:40.769Z,6.78
2022-12-25T16:37:27.717Z,9.05
2022-12-25T16:40:13.193Z,7.80
2022-12-25T16:42:58.793Z,7.72
2022-12-25T16:45:44.157Z,9.00
2022-12-25T16:48:29.680Z,17.92
2022-12-25T16:51:17.903Z,6.40
2022-12-25T16:54:04.163Z,7.47
2022-12-25T16:56:49.549Z,4.63
2022-12-25T16:59:35.991Z,4.28
2022-12-25T17:02:21.887Z,6.55
2022-12-25T17:05:08.174Z,11.05
2022-12-25T17:07:54.361Z,7.93
2022-12-25T17:10:39.597Z,9.10
2022-12-25T17:13:24.858Z,7.60
2022-12-25T17:16:16.435Z,8.05
2022-12-25T17:19:09.740Z,9.52
2022-12-25T17:21:55.579Z,9.43
2022-12-25T17:24:41.649Z,10.93
2022-12-25T17:27:27.770Z,11.57
2022-12-25T17:30:13.442Z,8.07
2022-12-25T17:32:58.936Z,17.05
2022-12-25T17:35:44.369Z,20.63
2022-12-25T17:38:31.489Z,9.50
2022-12-25T17:41:18.995Z,9.85
2022-12-25T17:44:04.735Z,7.78
2022-12-25T17:46:51.266Z,9.45
2022-12-25T17:49:37.085Z,7.43
2022-12-25T17:52:22.761Z,7.38
2022-12-25T17:55:08.924Z,7.03
2022-12-25T17:57:54.268Z,5.45
2022-12-25T18:00:39.931Z,4.93
2022-12-25T18:03:25.481Z,4.55
2022-12-25T18:06:13.877Z,3.65
2022-12-25T18:08:59.442Z,5.65
2022-12-25T18:11:44.823Z,4.10
2022-12-25T18:14:30.617Z,3.95
2022-12-25T18:17:16.132Z,4.28
2022-12-25T18:20:01.682Z,3.95
2022-12-25T18:22:48.469Z,4.55
2022-12-25T18:25:34.098Z,4.45
2022-12-25T18:28:19.965Z,4.78
2022-12-25T18:31:27.826Z,6.20
2022-12-25T18:34:13.562Z,5.53
2022-12-25T18:37:03.012Z,5.93
2022-12-25T18:39:48.827Z,5.45
2022-12-25T18:42:40.329Z,5.43
2022-12-25T18:45:26.375Z,5.45
2022-12-25T18:48:12.127Z,4.82
2022-12-25T18:51:06.691Z,6.28
2022-12-25T18:53:52.305Z,6.30
2022-12-25T18:56:38.478Z,6.32
2022-12-25T18:59:24.191Z,10.88
2022-12-25T19:02:16.627Z,10.18
2022-12-25T19:05:02.396Z,11.00
2022-12-25T19:07:48.245Z,10.93
2022-12-25T19:10:33.923Z,10.07
2022-12-25T19:13:19.624Z,6.60
2022-12-25T19:16:05.285Z,6.95
2022-12-25T19:18:51.273Z,5.68
2022-12-25T19:21:36.772Z,4.40
2022-12-25T19:24:23.390Z,5.57
2022-12-25T19:27:09.490Z,7.35
2022-12-25T19:29:55.229Z,6.55
2022-12-25T19:32:40.719Z,6.00
2022-12-25T19:35:26.187Z,5.93
2022-12-25T19:38:11.775Z,8.55
2022-12-25T19:41:01.004Z,5.38
2022-12-25T19:44:00.921Z,6.95
2022-12-25T19:46:47.303Z,4.82
2022-12-25T19:49:32.788Z,5.47
2022-12-25T19:52:18.362Z,8.05
2022-12-25T19:55:04.162Z,7.82
2022-12-25T19:57:49.859Z,8.68
2022-12-25T20:00:35.508Z,5.43
2022-12-25T20:03:21.231Z,5.28
2022-12-25T20:06:07.872Z,5.53
2022-12-25T20:08:56.396Z,4.07
2022-12-25T20:11:43.535Z,6.40
2022-12-25T20:14:29.285Z,4.38
2022-12-25T20:17:16.229Z,5.28
2022-12-25T20:20:02.134Z,4.45
2022-12-25T20:22:47.839Z,6.22
2022-12-25T20:25:33.317Z,7.97
2022-12-25T20:28:18.721Z,7.93
2022-12-25T20:31:09.941Z,9.80
2022-12-25T20:33:56.582Z,6.40
2022-12-25T20:36:42.437Z,6.30
2022-12-25T20:39:27.999Z,6.40
2022-12-25T20:42:13.833Z,6.80
2022-12-25T20:44:59.550Z,5.22
2022-12-25T20:47:45.119Z,6.88
2022-12-25T20:50:30.786Z,5.95
2022-12-25T20:53:17.988Z,6.82
2022-12-25T20:56:04.773Z,5.93
2022-12-25T20:58:59.166Z,5.30
2022-12-25T21:01:44.933Z,5.97
2022-12-25T21:04:31.875Z,5.65
2022-12-25T21:07:17.185Z,7.03
2022-12-25T21:10:03.577Z,7.63
2022-12-25T21:12:49.063Z,8.93
2022-12-25T21:15:34.549Z,7.70
2022-12-25T21:18:22.501Z,7.80
2022-12-25T21:21:09.163Z,7.40
2022-12-25T21:23:57.452Z,7.18
2022-12-25T21:26:47.966Z,6.28
2022-12-25T21:29:35.370Z,7.30
2022-12-25T21:32:39.789Z,8.05
2022-12-25T21:35:25.466Z,7.57
2022-12-25T21:38:11.536Z,7.50
2022-12-25T21:41:02.991Z,6.43
2022-12-25T21:43:48.499Z,7.72
2022-12-25T21:46:33.981Z,8.75
2022-12-25T21:49:39.265Z,6.32
2022-12-25T21:52:24.680Z,9.57
2022-12-25T21:55:10.220Z,7.93
2022-12-25T21:57:55.805Z,8.65
2022-12-25T22:00:41.280Z,12.15
2022-12-25T22:03:26.720Z,7.30
2022-12-25T22:06:31.449Z,7.32
2022-12-25T22:09:17.360Z,7.22
2022-12-25T22:12:22.565Z,6.97
2022-12-25T22:15:09.989Z,9.25
2022-12-25T22:18:13.795Z,8.98
2022-12-25T22:20:59.228Z,8.45
2022-12-25T22:23:45.037Z,13.80
2022-12-25T22:26:30.121Z,12.00
2022-12-25T22:29:15.626Z,12.32
2022-12-25T22:32:01.166Z,14.27
2022-12-25T22:34:47.078Z,11.75
2022-12-25T22:37:33.176Z,14.02
2022-12-25T22:40:20.028Z,1.48
2022-12-25T22:43:05.623Z,1.83
2022-12-25T22:45:51.315Z,2.42
2022-12-25T22:48:36.543Z,1.17
2022-12-25T22:51:29.779Z,1.10
2022-12-25T22:54:17.542Z,2.08
2022-12-25T22:57:04.610Z,2.88
2022-12-25T22:59:52.109Z,2.15
2022-12-25T23:02:38.054Z,2.38
2022-12-25T23:05:24.899Z,2.50
2022-12-25T23:08:10.688Z,2.60
2022-12-25T23:11:01.892Z,1.75
2022-12-25T23:14:06.371Z,1.50
2022-12-25T23:16:52.431Z,2.20
2022-12-25T23:19:56.749Z,1.77
2022-12-25T23:23:01.161Z,1.90
2022-12-25T23:26:06.055Z,1.80
2022-12-25T23:29:10.040Z,1.98
2022-12-25T23:31:57.759Z,1.88
2022-12-25T23:34:45.421Z,2.25
2022-12-25T23:37:31.588Z,2.33
2022-12-25T23:40:17.424Z,2.00
2022-12-25T23:43:03.201Z,1.40
2022-12-25T23:45:48.812Z,1.95
2022-12-25T23:48:34.246Z,1.88
2022-12-25T23:51:20.795Z,2.10
2022-12-25T23:54:07.068Z,1.80
2022-12-25T23:56:53.102Z,1.30
2022-12-25T23:59:38.673Z,1.30
